Cheatham Observed Data For Previous 48 Hours

Caption
Day and Hour Reservoir Elevation (behind dam)* Tailwater Elevation (below dam)* Average Hourly Discharge*
11/16/2017 1 AM CST 385.38 361.12 20,200
11/16/2017 2 AM CST 385.40 361.15 20,400
11/16/2017 3 AM CST 385.47 361.19 20,400
11/16/2017 4 AM CST 385.51 361.21 20,400
11/16/2017 5 AM CST 385.53 361.20 20,400
11/16/2017 6 AM CST 385.50 361.17 20,400
11/16/2017 7 AM CST 385.50 361.17 20,400
11/16/2017 8 AM CST 385.59 361.31 20,000
11/16/2017 9 AM CST 385.61 361.26 20,000
11/16/2017 10 AM CST 385.67 361.20 20,400
11/16/2017 11 AM CST 385.67 361.20 20,400
11/16/2017 12 PM CST 385.70 361.22 20,000
11/16/2017 1 PM CST 385.74 361.18 20,000
11/16/2017 2 PM CST 385.77 361.18 20,400
11/16/2017 3 PM CST 385.77 361.18 20,400
11/16/2017 4 PM CST 385.84 361.15 20,000
11/16/2017 5 PM CST 385.87 361.14 20,400
11/16/2017 6 PM CST 385.90 361.14 20,400
11/16/2017 7 PM CST 385.90 361.14 20,400
11/16/2017 8 PM CST 385.87 361.14 20,400
11/16/2017 9 PM CST 385.84 361.14 20,000
11/16/2017 10 PM CST 385.81 361.14 20,400
11/16/2017 11 PM CST 385.77 361.14 20,400
11/17/2017 12 AM CST 385.74 361.14 20,400
11/17/2017 1 AM CST 385.71 361.93 22,900
11/17/2017 2 AM CST 385.69 361.96 23,100
11/17/2017 3 AM CST 385.66 362.01 23,100
11/17/2017 4 AM CST 385.65 362.03 23,100
11/17/2017 5 AM CST 385.64 362.00 23,100
11/17/2017 6 AM CST 385.62 362.02 23,100
11/17/2017 7 AM CST 385.62 362.02 23,100
11/17/2017 8 AM CST 385.61 362.00 23,100
11/17/2017 9 AM CST 385.60 362.01 23,100
11/17/2017 10 AM CST 385.60 362.01 22,700
11/17/2017 11 AM CST 385.60 362.01 22,700
11/17/2017 12 PM CST 385.56 362.03 22,700
11/17/2017 1 PM CST 385.56 362.03 22,700
11/17/2017 2 PM CST 385.51 362.02 23,100
11/17/2017 3 PM CST 385.51 362.02 23,100
11/17/2017 4 PM CST 385.42 362.02 22,700
11/17/2017 5 PM CST 385.44 362.01 22,700
11/17/2017 6 PM CST 385.42 362.01 22,700
11/17/2017 7 PM CST 385.42 362.01 22,700
11/17/2017 8 PM CST 385.53 361.44 19,500
11/17/2017 9 PM CST 385.60 361.21 19,300
11/17/2017 10 PM CST 385.63 361.16 19,300
11/17/2017 11 PM CST 385.67 361.10 19,300
11/18/2017 12 AM CST 385.70 361.12 19,300
11/18/2017 1 AM CST 385.70 361.12 19,300
11/18/2017 2 AM CST - 999.00 - 999.00 -999
11/18/2017 3 AM CST 385.80 361.01 19,000
11/18/2017 4 AM CST 385.83 360.97 19,000
11/18/2017 5 AM CST 385.86 360.93 19,300
11/18/2017 6 AM CST 385.76 360.90 19,300
11/18/2017 7 AM CST 385.76 360.90 19,300

Elevations are in feet above sea level. Discharges are in cubic feet per second and are reported at the end of the hour.